sensor_id;sensor_type;location;lat;lon;timestamp;P1;durP1;ratioP1;P2;durP2;ratioP2
31686;SDS011;18285;51.330;4.946;2023-02-28T00:09:33;4.45;;;3.05;;
31686;SDS011;18285;51.330;4.946;2023-02-28T00:33:44;3.20;;;2.50;;
31686;SDS011;18285;51.330;4.946;2023-02-28T00:57:55;3.10;;;2.50;;
31686;SDS011;18285;51.330;4.946;2023-02-28T01:22:05;2.75;;;2.15;;
31686;SDS011;18285;51.330;4.946;2023-02-28T01:46:16;2.72;;;2.13;;
31686;SDS011;18285;51.330;4.946;2023-02-28T02:10:48;3.03;;;1.92;;
31686;SDS011;18285;51.330;4.946;2023-02-28T02:59:47;2.25;;;1.70;;
31686;SDS011;18285;51.330;4.946;2023-02-28T04:12:54;2.60;;;1.73;;
31686;SDS011;18285;51.330;4.946;2023-02-28T04:37:05;3.13;;;1.58;;
31686;SDS011;18285;51.330;4.946;2023-02-28T05:25:35;2.45;;;1.80;;
31686;SDS011;18285;51.330;4.946;2023-02-28T05:49:47;2.50;;;1.70;;
31686;SDS011;18285;51.330;4.946;2023-02-28T06:13:59;1.42;;;1.15;;
31686;SDS011;18285;51.330;4.946;2023-02-28T06:38:10;12.38;;;3.00;;
31686;SDS011;18285;51.330;4.946;2023-02-28T07:02:21;7.07;;;2.80;;
31686;SDS011;18285;51.330;4.946;2023-02-28T07:26:32;7.10;;;2.25;;
31686;SDS011;18285;51.330;4.946;2023-02-28T07:50:53;7.78;;;2.88;;
31686;SDS011;18285;51.330;4.946;2023-02-28T08:15:05;3.50;;;2.10;;
31686;SDS011;18285;51.330;4.946;2023-02-28T08:39:16;3.78;;;1.38;;
31686;SDS011;18285;51.330;4.946;2023-02-28T09:03:29;4.25;;;1.67;;
31686;SDS011;18285;51.330;4.946;2023-02-28T09:27:39;1.88;;;1.25;;
31686;SDS011;18285;51.330;4.946;2023-02-28T09:51:53;1.58;;;0.95;;
31686;SDS011;18285;51.330;4.946;2023-02-28T10:16:20;1.60;;;0.90;;
31686;SDS011;18285;51.330;4.946;2023-02-28T10:40:36;2.13;;;0.90;;
31686;SDS011;18285;51.330;4.946;2023-02-28T11:04:47;1.20;;;0.82;;
31686;SDS011;18285;51.330;4.946;2023-02-28T11:29:09;1.67;;;0.90;;
31686;SDS011;18285;51.330;4.946;2023-02-28T12:42:41;1.20;;;0.70;;
31686;SDS011;18285;51.330;4.946;2023-02-28T13:31:18;0.90;;;0.80;;
31686;SDS011;18285;51.330;4.946;2023-02-28T14:19:56;0.70;;;0.52;;
31686;SDS011;18285;51.330;4.946;2023-02-28T14:44:18;0.98;;;0.57;;
31686;SDS011;18285;51.330;4.946;2023-02-28T15:08:31;1.00;;;0.70;;
31686;SDS011;18285;51.330;4.946;2023-02-28T15:32:45;1.02;;;0.70;;
31686;SDS011;18285;51.330;4.946;2023-02-28T15:57:21;1.23;;;0.77;;
31686;SDS011;18285;51.330;4.946;2023-02-28T16:21:35;1.13;;;0.80;;
31686;SDS011;18285;51.330;4.946;2023-02-28T16:45:46;2.65;;;1.00;;
31686;SDS011;18285;51.330;4.946;2023-02-28T17:09:57;6.72;;;1.40;;
31686;SDS011;18285;51.330;4.946;2023-02-28T17:34:08;3.00;;;1.30;;
31686;SDS011;18285;51.330;4.946;2023-02-28T17:58:19;6.28;;;1.50;;
31686;SDS011;18285;51.330;4.946;2023-02-28T18:22:30;4.22;;;1.40;;
31686;SDS011;18285;51.330;4.946;2023-02-28T18:46:40;5.30;;;1.63;;
31686;SDS011;18285;51.330;4.946;2023-02-28T19:10:51;7.43;;;2.28;;
31686;SDS011;18285;51.330;4.946;2023-02-28T19:35:02;11.07;;;2.50;;
31686;SDS011;18285;51.330;4.946;2023-02-28T19:59:13;6.88;;;2.25;;
31686;SDS011;18285;51.330;4.946;2023-02-28T20:23:25;8.50;;;2.63;;
31686;SDS011;18285;51.330;4.946;2023-02-28T20:47:36;7.70;;;2.22;;
31686;SDS011;18285;51.330;4.946;2023-02-28T21:11:46;4.70;;;2.42;;
31686;SDS011;18285;51.330;4.946;2023-02-28T21:36:08;3.60;;;2.50;;
31686;SDS011;18285;51.330;4.946;2023-02-28T22:00:21;3.95;;;2.30;;
31686;SDS011;18285;51.330;4.946;2023-02-28T22:24:31;4.50;;;2.30;;
31686;SDS011;18285;51.330;4.946;2023-02-28T22:48:42;3.63;;;2.03;;
31686;SDS011;18285;51.330;4.946;2023-02-28T23:12:53;3.38;;;1.85;;
31686;SDS011;18285;51.330;4.946;2023-02-28T23:37:04;4.25;;;1.80;;
